Time;durP1;ratioP1;P1;durP2;ratioP2;P2;SDS_P1;SDS_P2;PMS_P1;PMS_P2;Temp;Humidity;BMP_temperature;BMP_pressure;BME280_temperature;BME280_humidity;BME280_pressure;Samples;Min_cycle;Max_cycle;Signal;HPM_P1;HPM_P2
2023/04/10 00:00:44;;;;;;;15.27;9.07;;;;;;;;;;5011366;28;25105;-75
2023/04/10 00:03:11;;;;;;;23.08;9.25;;;;;;;;;;5007505;28;25107;-76
2023/04/10 00:05:37;;;;;;;13.25;8.25;;;;;;;;;;5005235;28;25067;-72
2023/04/10 00:08:03;;;;;;;14.45;8.90;;;;;;;;;;5013994;28;25078;-74
2023/04/10 00:10:30;;;;;;;20.02;9.38;;;;;;;;;;5018967;28;25076;-75
2023/04/10 00:12:57;;;;;;;12.75;8.45;;;;;;;;;;5015436;28;25114;-74
2023/04/10 00:15:23;;;;;;;17.42;8.90;;;;;;;;;;4995764;28;25076;-73
2023/04/10 00:17:53;;;;;;;14.45;9.32;;;;;;;;;;4999828;28;25077;-73
2023/04/10 00:20:20;;;;;;;15.50;9.00;;;;;;;;;;5003606;28;25075;-75
2023/04/10 00:22:46;;;;;;;20.60;9.40;;;;;;;;;;5006030;28;25064;-74
2023/04/10 00:25:12;;;;;;;16.50;9.25;;;;;;;;;;5005192;28;25117;-73
2023/04/10 00:27:38;;;;;;;14.18;8.27;;;;;;;;;;5012511;28;25147;-75
2023/04/10 00:30:04;;;;;;;15.57;8.23;;;;;;;;;;5008038;28;25146;-73
2023/04/10 00:32:30;;;;;;;17.75;8.20;;;;;;;;;;5011363;28;25079;-77
2023/04/10 00:34:56;;;;;;;13.60;8.60;;;;;;;;;;5002252;28;25061;-73
2023/04/10 00:37:21;;;;;;;14.35;7.32;;;;;;;;;;5003034;28;25046;-74
2023/04/10 00:39:47;;;;;;;13.95;8.15;;;;;;;;;;5006647;28;25085;-74
2023/04/10 00:42:13;;;;;;;15.40;8.95;;;;;;;;;;5003413;28;25091;-73
2023/04/10 00:44:40;;;;;;;13.57;7.82;;;;;;;;;;5011978;28;25124;-74
2023/04/10 00:47:06;;;;;;;14.52;8.13;;;;;;;;;;5007480;28;25069;-72
2023/04/10 00:49:33;;;;;;;17.20;7.85;;;;;;;;;;5012690;28;25061;-74
2023/04/10 00:52:00;;;;;;;10.20;6.78;;;;;;;;;;5002195;28;25085;-74
2023/04/10 00:54:26;;;;;;;11.88;7.50;;;;;;;;;;5011552;28;25067;-74
2023/04/10 00:56:52;;;;;;;11.07;6.95;;;;;;;;;;5003056;28;25145;-73
2023/04/10 00:59:18;;;;;;;14.73;7.13;;;;;;;;;;5010517;28;25064;-73
2023/04/10 01:01:44;;;;;;;13.27;7.38;;;;;;;;;;4993151;28;25169;-74
2023/04/10 01:04:10;;;;;;;12.95;7.25;;;;;;;;;;5005804;28;25162;-75
2023/04/10 01:06:50;;;;;;;13.40;7.25;;;;;;;;;;5006600;28;25079;-73
2023/04/10 01:09:19;;;;;;;11.80;7.20;;;;;;;;;;5012746;28;25082;-74
2023/04/10 01:11:51;;;;;;;12.02;7.65;;;;;;;;;;5011507;28;25158;-72
2023/04/10 01:14:32;;;;;;;13.55;8.02;;;;;;;;;;5016206;28;25078;-74
2023/04/10 01:17:05;;;;;;;16.77;7.57;;;;;;;;;;5006150;28;25170;-74
2023/04/10 01:19:41;;;;;;;12.32;8.05;;;;;;;;;;5009846;28;25167;-73
2023/04/10 01:22:10;;;;;;;14.02;7.60;;;;;;;;;;5006580;28;25072;-73
2023/04/10 01:24:44;;;;;;;13.15;7.32;;;;;;;;;;5013080;28;25062;-74
2023/04/10 01:27:29;;;;;;;11.93;7.93;;;;;;;;;;5016139;28;25079;-74
2023/04/10 01:29:57;;;;;;;12.18;7.22;;;;;;;;;;5012887;28;25071;-74
2023/04/10 01:32:23;;;;;;;14.43;7.72;;;;;;;;;;5013390;28;25051;-73
2023/04/10 01:34:51;;;;;;;13.13;7.80;;;;;;;;;;5004421;28;25058;-77
2023/04/10 01:37:23;;;;;;;13.95;7.68;;;;;;;;;;5007985;28;25070;-76
2023/04/10 01:39:53;;;;;;;12.25;7.53;;;;;;;;;;5007282;28;25098;-73
2023/04/10 01:42:19;;;;;;;12.75;7.63;;;;;;;;;;5008185;28;25154;-74
2023/04/10 01:44:46;;;;;;;13.57;7.57;;;;;;;;;;5007416;28;25152;-72
2023/04/10 01:47:13;;;;;;;15.07;7.43;;;;;;;;;;5013718;28;25155;-73
2023/04/10 01:49:43;;;;;;;11.88;7.30;;;;;;;;;;5005225;28;25055;-74
2023/04/10 01:52:10;;;;;;;12.85;7.10;;;;;;;;;;5003928;28;25076;-74
2023/04/10 01:54:36;;;;;;;13.60;7.30;;;;;;;;;;4995779;28;25098;-74
2023/04/10 01:57:03;;;;;;;11.52;6.43;;;;;;;;;;5010348;28;25082;-74
2023/04/10 01:59:30;;;;;;;10.85;6.88;;;;;;;;;;4980411;28;25084;-72
2023/04/10 02:01:59;;;;;;;11.48;7.15;;;;;;;;;;5011672;28;25125;-75
2023/04/10 02:04:25;;;;;;;13.35;7.55;;;;;;;;;;5009291;28;25078;-74
2023/04/10 02:07:02;;;;;;;11.52;6.57;;;;;;;;;;5015299;28;25070;-76
2023/04/10 02:09:34;;;;;;;11.93;7.05;;;;;;;;;;5001995;28;25065;-73
2023/04/10 02:12:10;;;;;;;10.27;6.35;;;;;;;;;;5015529;28;25089;-73
2023/04/10 02:14:38;;;;;;;12.10;6.95;;;;;;;;;;5012108;28;25145;-73
2023/04/10 02:17:04;;;;;;;11.88;7.45;;;;;;;;;;5014000;28;25092;-73
2023/04/10 02:19:31;;;;;;;13.25;7.55;;;;;;;;;;5010594;28;25077;-73
2023/04/10 02:21:57;;;;;;;13.10;7.47;;;;;;;;;;5006848;28;25065;-72
2023/04/10 02:24:24;;;;;;;12.20;6.93;;;;;;;;;;5011668;28;25158;-74
2023/04/10 02:26:50;;;;;;;10.73;6.95;;;;;;;;;;5006001;28;25061;-73
2023/04/10 02:29:16;;;;;;;11.25;6.95;;;;;;;;;;5019173;28;25062;-74
2023/04/10 02:31:43;;;;;;;11.93;6.60;;;;;;;;;;5014373;28;25080;-74
2023/04/10 02:34:09;;;;;;;11.65;6.80;;;;;;;;;;5015279;28;25093;-70
2023/04/10 02:36:36;;;;;;;9.65;6.38;;;;;;;;;;5017273;28;25130;-73
2023/04/10 02:39:02;;;;;;;11.88;6.55;;;;;;;;;;5005368;28;25073;-74
2023/04/10 02:41:28;;;;;;;11.27;6.28;;;;;;;;;;5010480;28;25051;-73
2023/04/10 02:43:54;;;;;;;9.35;5.88;;;;;;;;;;5019343;28;25060;-74
2023/04/10 02:46:20;;;;;;;12.20;6.45;;;;;;;;;;5000174;28;25061;-73
2023/04/10 02:48:46;;;;;;;11.38;6.55;;;;;;;;;;5011621;28;25084;-75
2023/04/10 02:51:12;;;;;;;12.23;6.50;;;;;;;;;;5011066;28;25072;-74
2023/04/10 02:53:38;;;;;;;13.60;6.32;;;;;;;;;;5012956;28;25087;-75
2023/04/10 02:56:08;;;;;;;10.93;6.50;;;;;;;;;;5018362;28;25064;-75
2023/04/10 02:58:34;;;;;;;9.30;5.63;;;;;;;;;;5016866;28;25052;-74
2023/04/10 03:01:00;;;;;;;10.40;5.65;;;;;;;;;;4993232;28;25111;-76
2023/04/10 03:03:26;;;;;;;10.23;5.82;;;;;;;;;;5018730;28;25134;-73
2023/04/10 03:05:53;;;;;;;10.55;6.25;;;;;;;;;;4999472;28;25087;-75
2023/04/10 03:08:19;;;;;;;12.02;5.93;;;;;;;;;;5018395;28;25060;-75
2023/04/10 03:10:49;;;;;;;11.73;5.85;;;;;;;;;;5005017;28;25056;-77
2023/04/10 03:13:16;;;;;;;9.75;6.53;;;;;;;;;;5027932;28;25095;-74
2023/04/10 03:15:42;;;;;;;11.10;5.93;;;;;;;;;;5019756;28;25134;-75
2023/04/10 03:18:08;;;;;;;9.45;5.82;;;;;;;;;;5024301;28;25107;-74
2023/04/10 03:20:37;;;;;;;9.00;6.05;;;;;;;;;;4998346;28;25103;-73
2023/04/10 03:23:04;;;;;;;7.78;5.55;;;;;;;;;;4994775;28;25096;-72
2023/04/10 03:25:31;;;;;;;7.55;5.05;;;;;;;;;;5014817;28;25135;-74
2023/04/10 03:27:57;;;;;;;8.63;5.80;;;;;;;;;;5014868;28;25116;-73
2023/04/10 03:30:23;;;;;;;10.57;5.75;;;;;;;;;;5009856;28;25069;-73
2023/04/10 03:32:49;;;;;;;10.88;6.32;;;;;;;;;;5012270;28;25063;-74
2023/04/10 03:35:14;;;;;;;8.52;5.85;;;;;;;;;;4998304;28;25063;-73
2023/04/10 03:37:41;;;;;;;13.68;6.28;;;;;;;;;;5011275;28;25160;-74
2023/04/10 03:40:08;;;;;;;9.13;6.38;;;;;;;;;;5018239;28;25092;-72
2023/04/10 03:42:34;;;;;;;9.25;6.10;;;;;;;;;;5011225;28;25059;-74
2023/04/10 03:45:03;;;;;;;10.77;6.40;;;;;;;;;;5015597;28;25077;-73
2023/04/10 03:47:29;;;;;;;10.02;5.75;;;;;;;;;;5004863;28;24726;-75
2023/04/10 03:49:55;;;;;;;9.35;5.35;;;;;;;;;;5018634;28;25073;-73
2023/04/10 03:52:21;;;;;;;8.35;5.47;;;;;;;;;;5007242;28;25081;-74
2023/04/10 03:54:47;;;;;;;9.88;6.28;;;;;;;;;;5002229;28;25089;-76
2023/04/10 03:57:13;;;;;;;14.82;5.85;;;;;;;;;;5007378;28;25147;-76
2023/04/10 03:59:39;;;;;;;7.97;5.75;;;;;;;;;;5005905;28;25061;-74
2023/04/10 04:02:06;;;;;;;9.80;6.05;;;;;;;;;;5012862;28;25184;-73
2023/04/10 04:04:32;;;;;;;8.52;5.30;;;;;;;;;;5002321;28;25128;-74
2023/04/10 04:06:58;;;;;;;8.70;5.35;;;;;;;;;;5004654;28;25082;-73
2023/04/10 04:09:24;;;;;;;8.63;6.15;;;;;;;;;;5013492;28;25070;-73
2023/04/10 04:11:50;;;;;;;7.78;5.07;;;;;;;;;;5008890;28;25076;-73
2023/04/10 04:14:16;;;;;;;9.70;5.18;;;;;;;;;;5011132;28;25078;-75
2023/04/10 04:16:42;;;;;;;10.40;5.80;;;;;;;;;;5009867;28;25071;-72
2023/04/10 04:19:08;;;;;;;8.88;5.95;;;;;;;;;;5011610;28;25091;-75
2023/04/10 04:21:34;;;;;;;12.23;6.88;;;;;;;;;;5011099;28;25197;-72
2023/04/10 04:24:00;;;;;;;11.23;6.22;;;;;;;;;;5007539;28;25093;-72
2023/04/10 04:26:26;;;;;;;9.88;5.93;;;;;;;;;;5010037;28;25085;-73
2023/04/10 04:28:52;;;;;;;10.20;6.32;;;;;;;;;;5012395;28;25072;-75
2023/04/10 04:31:18;;;;;;;11.27;5.82;;;;;;;;;;5009996;28;25079;-73
2023/04/10 04:33:44;;;;;;;8.57;5.72;;;;;;;;;;4987080;28;25100;-73
2023/04/10 04:36:10;;;;;;;8.98;5.65;;;;;;;;;;5013720;28;25070;-74
2023/04/10 04:38:36;;;;;;;8.52;5.68;;;;;;;;;;5004919;28;25079;-75
2023/04/10 04:41:02;;;;;;;12.57;6.53;;;;;;;;;;5006739;28;25081;-73
2023/04/10 04:43:28;;;;;;;8.30;5.95;;;;;;;;;;5011839;28;25082;-73
2023/04/10 04:45:54;;;;;;;9.38;5.95;;;;;;;;;;5010640;28;25149;-73
2023/04/10 04:48:20;;;;;;;18.20;6.40;;;;;;;;;;5006228;28;25154;-74
2023/04/10 04:50:46;;;;;;;8.48;5.70;;;;;;;;;;5011709;28;25069;-74
2023/04/10 04:53:12;;;;;;;9.15;6.15;;;;;;;;;;5001993;28;25074;-74
2023/04/10 04:55:39;;;;;;;8.40;5.32;;;;;;;;;;4999094;28;25066;-73
2023/04/10 04:58:04;;;;;;;10.52;6.47;;;;;;;;;;5002828;28;25076;-74
2023/04/10 05:00:30;;;;;;;10.95;6.47;;;;;;;;;;5009035;28;25094;-74
2023/04/10 05:02:56;;;;;;;8.48;5.88;;;;;;;;;;5007031;28;25057;-74
2023/04/10 05:05:23;;;;;;;9.43;5.80;;;;;;;;;;5007181;28;25076;-72
2023/04/10 05:07:49;;;;;;;9.05;5.57;;;;;;;;;;4984769;28;25070;-74
2023/04/10 05:10:15;;;;;;;9.00;6.03;;;;;;;;;;5008279;28;25103;-73
2023/04/10 05:12:42;;;;;;;8.10;5.25;;;;;;;;;;5011133;28;25059;-74
2023/04/10 05:15:08;;;;;;;8.13;5.15;;;;;;;;;;4991665;28;25064;-75
2023/04/10 05:17:34;;;;;;;8.30;5.45;;;;;;;;;;5014099;28;25105;-73
2023/04/10 05:20:00;;;;;;;12.82;6.90;;;;;;;;;;5011398;28;25068;-74
2023/04/10 05:22:27;;;;;;;8.23;5.72;;;;;;;;;;5004899;28;25092;-73
2023/04/10 05:24:54;;;;;;;8.55;5.35;;;;;;;;;;5001310;28;25075;-76
2023/04/10 05:27:20;;;;;;;11.10;5.82;;;;;;;;;;5014210;28;25062;-76
2023/04/10 05:29:46;;;;;;;9.27;5.80;;;;;;;;;;5001600;28;25064;-74
2023/04/10 05:32:12;;;;;;;8.65;5.45;;;;;;;;;;5008490;28;25083;-74
2023/04/10 05:34:38;;;;;;;11.85;6.28;;;;;;;;;;5003335;28;25071;-72
2023/04/10 05:37:04;;;;;;;11.75;6.53;;;;;;;;;;5012898;28;25069;-75
2023/04/10 05:39:30;;;;;;;9.30;5.68;;;;;;;;;;5015681;28;25100;-74
2023/04/10 05:41:57;;;;;;;8.13;5.20;;;;;;;;;;5006615;28;25069;-74
2023/04/10 05:44:23;;;;;;;10.00;5.78;;;;;;;;;;4995562;28;25118;-73
2023/04/10 05:46:49;;;;;;;10.30;5.53;;;;;;;;;;4992431;28;25069;-74
2023/04/10 05:49:15;;;;;;;9.88;6.30;;;;;;;;;;5012601;28;25099;-73
2023/04/10 05:51:42;;;;;;;10.57;5.78;;;;;;;;;;5009060;28;25109;-72
2023/04/10 05:54:08;;;;;;;8.13;5.50;;;;;;;;;;4999746;28;25065;-73
2023/04/10 05:56:34;;;;;;;8.70;5.38;;;;;;;;;;5009277;28;25066;-73
2023/04/10 05:59:00;;;;;;;9.35;5.35;;;;;;;;;;5011067;28;25058;-75
2023/04/10 06:01:26;;;;;;;11.65;6.05;;;;;;;;;;5010114;28;25084;-74
2023/04/10 06:03:52;;;;;;;7.78;5.30;;;;;;;;;;5009383;28;25070;-72
2023/04/10 06:06:20;;;;;;;8.70;5.47;;;;;;;;;;5008352;28;25062;-74
2023/04/10 06:08:46;;;;;;;7.63;5.38;;;;;;;;;;5005263;28;25054;-74
2023/04/10 06:11:12;;;;;;;14.18;6.57;;;;;;;;;;5012715;28;25094;-72
2023/04/10 06:13:38;;;;;;;9.55;5.75;;;;;;;;;;5013871;28;25063;-75
2023/04/10 06:16:04;;;;;;;9.10;6.30;;;;;;;;;;5010886;28;25069;-74
2023/04/10 06:18:30;;;;;;;8.82;5.28;;;;;;;;;;5017754;28;25065;-76
2023/04/10 06:21:00;;;;;;;8.95;5.95;;;;;;;;;;5011244;28;25060;-74
2023/04/10 06:23:27;;;;;;;10.63;6.20;;;;;;;;;;4996302;28;25066;-75
2023/04/10 06:25:53;;;;;;;9.30;5.75;;;;;;;;;;5012183;28;25067;-74
2023/04/10 06:28:19;;;;;;;8.88;5.82;;;;;;;;;;5005451;28;25112;-74
2023/04/10 06:30:45;;;;;;;7.90;5.68;;;;;;;;;;5011939;28;25110;-74
2023/04/10 06:33:11;;;;;;;8.00;5.63;;;;;;;;;;5012487;28;25095;-73
2023/04/10 06:35:37;;;;;;;9.68;5.43;;;;;;;;;;5020132;28;25058;-75
2023/04/10 06:38:03;;;;;;;9.48;5.70;;;;;;;;;;5016777;28;25081;-74
2023/04/10 06:40:29;;;;;;;9.23;6.00;;;;;;;;;;4996181;28;25050;-73
2023/04/10 06:42:56;;;;;;;9.40;5.60;;;;;;;;;;5023738;28;25072;-75
2023/04/10 06:45:22;;;;;;;9.70;5.68;;;;;;;;;;5017494;28;25066;-76
2023/04/10 06:47:48;;;;;;;11.73;6.20;;;;;;;;;;5017475;28;25107;-74
2023/04/10 06:50:14;;;;;;;10.55;5.60;;;;;;;;;;5013270;28;25084;-75
2023/04/10 06:52:40;;;;;;;8.85;5.97;;;;;;;;;;5022699;28;25057;-75
2023/04/10 06:55:06;;;;;;;9.30;5.95;;;;;;;;;;5020447;28;25076;-74
2023/04/10 06:57:32;;;;;;;9.38;6.05;;;;;;;;;;5020453;28;25083;-73
2023/04/10 06:59:58;;;;;;;8.82;5.63;;;;;;;;;;5010961;28;25077;-74
2023/04/10 07:02:24;;;;;;;10.20;6.22;;;;;;;;;;5018553;28;25081;-73
2023/04/10 07:04:50;;;;;;;9.48;5.50;;;;;;;;;;5013112;28;25076;-72
2023/04/10 07:07:18;;;;;;;10.90;5.32;;;;;;;;;;5013863;28;25069;-73
2023/04/10 07:09:44;;;;;;;9.38;5.72;;;;;;;;;;5006104;28;25058;-74
2023/04/10 07:12:10;;;;;;;10.55;6.70;;;;;;;;;;5019206;28;25095;-74
2023/04/10 07:14:36;;;;;;;9.13;5.70;;;;;;;;;;5021828;28;25082;-72
2023/04/10 07:17:02;;;;;;;8.73;5.43;;;;;;;;;;5012073;28;25053;-72
2023/04/10 07:19:28;;;;;;;8.13;5.20;;;;;;;;;;5009271;28;25047;-72
2023/04/10 07:21:54;;;;;;;8.70;5.47;;;;;;;;;;5021726;28;25079;-73
2023/04/10 07:24:20;;;;;;;7.55;5.22;;;;;;;;;;5014634;28;25081;-73
2023/04/10 07:26:46;;;;;;;9.05;6.13;;;;;;;;;;5014515;28;25071;-75
2023/04/10 07:29:13;;;;;;;13.43;5.93;;;;;;;;;;5017531;28;25068;-74
2023/04/10 07:31:39;;;;;;;8.20;5.78;;;;;;;;;;5010083;28;25087;-75
2023/04/10 07:34:05;;;;;;;8.43;5.43;;;;;;;;;;5012705;28;25079;-75
2023/04/10 07:36:31;;;;;;;7.57;5.15;;;;;;;;;;5002438;28;25101;-74
2023/04/10 07:38:57;;;;;;;9.48;6.18;;;;;;;;;;5013290;28;25100;-73
2023/04/10 07:41:23;;;;;;;8.85;5.85;;;;;;;;;;5017494;28;25089;-74
2023/04/10 07:43:49;;;;;;;11.32;6.28;;;;;;;;;;5007850;28;25103;-73
2023/04/10 07:46:16;;;;;;;7.80;5.65;;;;;;;;;;5016018;28;25060;-76
2023/04/10 07:48:43;;;;;;;7.78;5.35;;;;;;;;;;5013900;28;25051;-73
2023/04/10 07:51:09;;;;;;;10.60;5.80;;;;;;;;;;4988805;28;25127;-74
2023/04/10 07:53:35;;;;;;;11.80;6.15;;;;;;;;;;5008899;28;25143;-77
2023/04/10 07:56:01;;;;;;;9.73;5.25;;;;;;;;;;4998069;28;25111;-75
2023/04/10 07:58:28;;;;;;;9.82;5.93;;;;;;;;;;5006186;28;25059;-75
2023/04/10 08:00:54;;;;;;;10.40;5.88;;;;;;;;;;5012967;28;25105;-74
2023/04/10 08:03:20;;;;;;;11.88;6.30;;;;;;;;;;5011247;28;25079;-74
2023/04/10 08:05:46;;;;;;;9.23;6.15;;;;;;;;;;5007992;28;25083;-74
2023/04/10 08:08:12;;;;;;;10.13;6.35;;;;;;;;;;4994712;28;25081;-77
2023/04/10 08:10:38;;;;;;;9.07;6.85;;;;;;;;;;5000396;28;25067;-76
2023/04/10 08:13:05;;;;;;;10.60;6.22;;;;;;;;;;5008022;28;25087;-76
2023/04/10 08:15:30;;;;;;;9.90;5.68;;;;;;;;;;5007387;28;25057;-75
2023/04/10 08:17:56;;;;;;;11.27;6.25;;;;;;;;;;5008190;28;25074;-76
2023/04/10 08:20:22;;;;;;;11.35;6.05;;;;;;;;;;5002226;28;25074;-75
2023/04/10 08:22:48;;;;;;;10.45;6.22;;;;;;;;;;4994499;28;25113;-75
2023/04/10 08:25:14;;;;;;;14.52;6.30;;;;;;;;;;4987530;28;25112;-76
2023/04/10 08:27:40;;;;;;;9.55;6.18;;;;;;;;;;4981163;28;25100;-75
2023/04/10 08:30:07;;;;;;;9.32;6.63;;;;;;;;;;4996087;28;25096;-75
2023/04/10 08:32:33;;;;;;;10.50;6.47;;;;;;;;;;4986980;28;25070;-73
2023/04/10 08:34:59;;;;;;;10.63;6.30;;;;;;;;;;4994002;28;25175;-74
2023/04/10 08:37:25;;;;;;;10.52;6.43;;;;;;;;;;4999415;28;25165;-73
2023/04/10 08:39:51;;;;;;;10.02;6.20;;;;;;;;;;4973026;28;25089;-75
2023/04/10 08:42:17;;;;;;;9.13;6.20;;;;;;;;;;4978816;28;25063;-75
2023/04/10 08:44:44;;;;;;;8.88;5.40;;;;;;;;;;5007639;28;25096;-75
2023/04/10 08:47:11;;;;;;;12.68;6.43;;;;;;;;;;5008551;28;25052;-75
2023/04/10 08:49:41;;;;;;;8.38;6.03;;;;;;;;;;5007545;28;25057;-75
2023/04/10 08:52:11;;;;;;;10.45;6.75;;;;;;;;;;5005979;28;25080;-72
2023/04/10 08:54:38;;;;;;;11.50;6.43;;;;;;;;;;5004089;28;25060;-75
2023/04/10 08:57:06;;;;;;;9.15;6.07;;;;;;;;;;4995971;28;25080;-78
2023/04/10 08:59:32;;;;;;;9.43;6.25;;;;;;;;;;5006793;28;25078;-73
2023/04/10 09:01:59;;;;;;;9.48;6.15;;;;;;;;;;4999910;28;25135;-75
2023/04/10 09:04:25;;;;;;;8.60;5.57;;;;;;;;;;5000567;28;25070;-76
2023/04/10 09:06:54;;;;;;;10.90;6.70;;;;;;;;;;4981438;28;25080;-75
2023/04/10 09:09:20;;;;;;;9.15;6.13;;;;;;;;;;5008696;28;25073;-74
2023/04/10 09:11:54;;;;;;;12.07;6.28;;;;;;;;;;5011122;28;25056;-73
2023/04/10 09:14:24;;;;;;;11.77;5.65;;;;;;;;;;5007977;28;25072;-75
2023/04/10 09:16:50;;;;;;;10.57;7.05;;;;;;;;;;5003099;28;25150;-77
2023/04/10 09:19:29;;;;;;;10.15;5.93;;;;;;;;;;4979960;28;25056;-75
2023/04/10 09:21:55;;;;;;;10.07;6.30;;;;;;;;;;4994232;28;25069;-75
2023/04/10 09:24:22;;;;;;;10.18;6.30;;;;;;;;;;5002235;28;25115;-74
2023/04/10 09:26:48;;;;;;;11.10;6.65;;;;;;;;;;5002214;28;25072;-76
2023/04/10 09:29:15;;;;;;;10.73;5.78;;;;;;;;;;4984787;28;25167;-73
2023/04/10 09:31:42;;;;;;;8.93;5.95;;;;;;;;;;4983495;28;25089;-74
2023/04/10 09:34:18;;;;;;;10.80;6.03;;;;;;;;;;5014438;28;25086;-75
2023/04/10 09:36:53;;;;;;;11.77;6.32;;;;;;;;;;4997007;28;25088;-77
2023/04/10 09:39:20;;;;;;;11.90;6.38;;;;;;;;;;5003166;28;25152;-76
2023/04/10 09:41:48;;;;;;;12.43;6.55;;;;;;;;;;5000692;28;25148;-74
2023/04/10 09:44:17;;;;;;;10.38;5.97;;;;;;;;;;4996084;28;25157;-76
2023/04/10 09:46:44;;;;;;;11.68;6.47;;;;;;;;;;4997812;28;25169;-75
2023/04/10 09:49:10;;;;;;;9.10;5.95;;;;;;;;;;5003624;28;25061;-74
2023/04/10 09:51:38;;;;;;;8.18;5.53;;;;;;;;;;5005147;28;25082;-75
2023/04/10 09:54:04;;;;;;;10.52;5.82;;;;;;;;;;4998898;28;25085;-75
2023/04/10 09:56:31;;;;;;;10.88;5.95;;;;;;;;;;4978808;28;25129;-75
2023/04/10 09:58:58;;;;;;;9.35;6.07;;;;;;;;;;4995401;28;25096;-75
2023/04/10 10:01:27;;;;;;;10.63;5.78;;;;;;;;;;5004993;28;25092;-75
2023/04/10 10:03:54;;;;;;;11.68;6.35;;;;;;;;;;5001324;28;25088;-77
2023/04/10 10:06:20;;;;;;;8.05;6.13;;;;;;;;;;5004177;28;25098;-75
2023/04/10 10:08:46;;;;;;;9.20;5.82;;;;;;;;;;4990929;28;26181;-75
2023/04/10 10:11:13;;;;;;;8.75;5.35;;;;;;;;;;4999453;28;25092;-75
2023/04/10 10:13:53;;;;;;;7.60;5.32;;;;;;;;;;5002463;28;25071;-76
2023/04/10 10:16:22;;;;;;;8.77;5.88;;;;;;;;;;5003695;28;25095;-74
2023/04/10 10:19:00;;;;;;;8.55;5.75;;;;;;;;;;4998664;28;25068;-75
2023/04/10 10:21:28;;;;;;;10.45;6.45;;;;;;;;;;5004466;28;25065;-77
2023/04/10 10:23:54;;;;;;;9.77;5.45;;;;;;;;;;5007274;28;25062;-76
2023/04/10 10:26:22;;;;;;;11.27;6.13;;;;;;;;;;4998306;28;25091;-75
2023/04/10 10:28:50;;;;;;;9.13;5.53;;;;;;;;;;5000392;28;25061;-77
2023/04/10 10:31:18;;;;;;;8.85;5.68;;;;;;;;;;4996728;28;25065;-77
2023/04/10 10:33:46;;;;;;;9.57;5.82;;;;;;;;;;5005815;28;25069;-76
2023/04/10 10:36:13;;;;;;;6.15;5.15;;;;;;;;;;5007115;28;25094;-76
2023/04/10 10:38:47;;;;;;;10.00;5.70;;;;;;;;;;4982426;28;25126;-76
2023/04/10 10:41:17;;;;;;;7.32;4.40;;;;;;;;;;5004590;28;25124;-74
2023/04/10 10:43:52;;;;;;;9.57;5.22;;;;;;;;;;5006214;28;25151;-76
2023/04/10 10:46:26;;;;;;;7.28;5.38;;;;;;;;;;5001296;28;25061;-76
2023/04/10 10:48:56;;;;;;;8.63;5.65;;;;;;;;;;4999548;28;25155;-74
2023/04/10 10:51:22;;;;;;;8.63;5.45;;;;;;;;;;5001730;28;25112;-74
2023/04/10 10:53:48;;;;;;;9.63;6.28;;;;;;;;;;5009105;28;25121;-74
2023/04/10 10:56:25;;;;;;;9.63;5.30;;;;;;;;;;5003310;28;25074;-79
2023/04/10 10:58:57;;;;;;;9.45;5.68;;;;;;;;;;4999145;28;25053;-75
2023/04/10 11:01:23;;;;;;;8.43;5.75;;;;;;;;;;4996336;28;25090;-78
2023/04/10 11:03:50;;;;;;;6.95;4.95;;;;;;;;;;5005655;28;25066;-77
2023/04/10 11:06:20;;;;;;;6.85;4.78;;;;;;;;;;4998083;28;25088;-77
2023/04/10 11:08:51;;;;;;;6.82;4.90;;;;;;;;;;4989550;28;25441;-78
2023/04/10 11:11:22;;;;;;;7.57;5.20;;;;;;;;;;4990874;28;25054;-73
2023/04/10 11:13:51;;;;;;;10.38;4.65;;;;;;;;;;5000103;28;25158;-76
2023/04/10 11:16:17;;;;;;;6.20;4.35;;;;;;;;;;5003612;28;25146;-75
2023/04/10 11:18:46;;;;;;;5.80;4.53;;;;;;;;;;5004754;28;25059;-76
2023/04/10 11:21:12;;;;;;;7.07;4.82;;;;;;;;;;5003867;28;25138;-76
2023/04/10 11:23:38;;;;;;;5.65;4.30;;;;;;;;;;5005899;28;25070;-73
2023/04/10 11:26:05;;;;;;;6.47;4.38;;;;;;;;;;5011955;28;25069;-77
2023/04/10 11:28:34;;;;;;;10.73;3.92;;;;;;;;;;4988699;28;25089;-77
2023/04/10 11:31:18;;;;;;;6.43;4.45;;;;;;;;;;5012553;28;25099;-75
2023/04/10 11:33:57;;;;;;;6.25;4.03;;;;;;;;;;4994191;28;25065;-75
2023/04/10 11:36:23;;;;;;;5.65;3.95;;;;;;;;;;5008614;28;25062;-75
2023/04/10 11:38:56;;;;;;;5.97;4.18;;;;;;;;;;5011281;28;25075;-75
2023/04/10 11:41:33;;;;;;;7.03;4.63;;;;;;;;;;4997775;28;25091;-75
2023/04/10 11:43:59;;;;;;;8.15;4.68;;;;;;;;;;5008148;28;25124;-72
2023/04/10 11:46:25;;;;;;;7.70;4.03;;;;;;;;;;5012860;28;25074;-73
2023/04/10 11:48:52;;;;;;;6.35;4.47;;;;;;;;;;5016686;28;25118;-74
2023/04/10 11:51:18;;;;;;;6.35;4.13;;;;;;;;;;5009724;28;25104;-73
2023/04/10 11:53:45;;;;;;;5.00;3.70;;;;;;;;;;5026330;28;25088;-75
2023/04/10 11:56:18;;;;;;;6.57;4.15;;;;;;;;;;5025934;28;25055;-76
2023/04/10 11:58:44;;;;;;;6.88;3.90;;;;;;;;;;5021309;28;25101;-73
2023/04/10 12:01:13;;;;;;;9.07;3.85;;;;;;;;;;5011673;28;25052;-73
2023/04/10 12:03:42;;;;;;;5.13;3.95;;;;;;;;;;5013782;28;25046;-75
2023/04/10 12:06:10;;;;;;;7.63;3.58;;;;;;;;;;5010211;28;25091;-75
2023/04/10 12:08:37;;;;;;;6.20;4.20;;;;;;;;;;5017369;28;25152;-76
2023/04/10 12:11:03;;;;;;;7.40;3.92;;;;;;;;;;5009208;28;25062;-73
2023/04/10 12:13:30;;;;;;;5.03;3.58;;;;;;;;;;5004640;28;25076;-74
2023/04/10 12:16:00;;;;;;;6.25;4.30;;;;;;;;;;5005842;28;25133;-73
2023/04/10 12:18:27;;;;;;;8.93;4.63;;;;;;;;;;4994649;28;25073;-74
2023/04/10 12:20:55;;;;;;;6.38;3.97;;;;;;;;;;5004997;28;25077;-74
2023/04/10 12:23:22;;;;;;;8.88;3.88;;;;;;;;;;4986547;28;25138;-73
2023/04/10 12:25:48;;;;;;;4.03;3.15;;;;;;;;;;4987829;28;25180;-72
2023/04/10 12:28:18;;;;;;;6.72;4.57;;;;;;;;;;5003929;28;25061;-73
2023/04/10 12:30:53;;;;;;;10.02;3.78;;;;;;;;;;5003249;28;25068;-75
2023/04/10 12:33:23;;;;;;;5.60;3.67;;;;;;;;;;5006962;28;25054;-76
2023/04/10 12:35:50;;;;;;;4.63;3.17;;;;;;;;;;5024302;28;25081;-75
2023/04/10 12:38:16;;;;;;;6.65;3.95;;;;;;;;;;5014812;28;25051;-76
2023/04/10 12:40:58;;;;;;;5.82;4.00;;;;;;;;;;5005768;28;25071;-74
2023/04/10 12:43:35;;;;;;;8.38;3.90;;;;;;;;;;5008538;28;25058;-72
2023/04/10 12:46:02;;;;;;;6.78;4.28;;;;;;;;;;5009011;28;25058;-77
2023/04/10 12:48:28;;;;;;;7.70;4.20;;;;;;;;;;5018934;28;25053;-77
2023/04/10 12:50:54;;;;;;;7.50;4.80;;;;;;;;;;5027230;28;25105;-74
2023/04/10 12:53:20;;;;;;;7.15;4.35;;;;;;;;;;5017724;28;25070;-74
2023/04/10 12:55:59;;;;;;;7.90;4.40;;;;;;;;;;5006823;28;25085;-74
2023/04/10 12:58:27;;;;;;;10.25;4.18;;;;;;;;;;5002996;28;25071;-74
2023/04/10 13:00:54;;;;;;;9.02;5.35;;;;;;;;;;5001989;28;25096;-77
2023/04/10 13:03:20;;;;;;;7.90;5.57;;;;;;;;;;5006390;28;25068;-76
2023/04/10 13:05:46;;;;;;;10.20;5.13;;;;;;;;;;5003143;28;25070;-77
2023/04/10 13:08:12;;;;;;;6.72;4.97;;;;;;;;;;4999286;28;25054;-76
2023/04/10 13:10:39;;;;;;;11.45;5.13;;;;;;;;;;5001149;28;25121;-74
2023/04/10 13:13:05;;;;;;;8.50;5.57;;;;;;;;;;5000127;28;25078;-74
2023/04/10 13:15:33;;;;;;;7.88;5.75;;;;;;;;;;4999755;28;25080;-76
2023/04/10 13:17:59;;;;;;;10.82;5.65;;;;;;;;;;4998285;28;25061;-75
2023/04/10 13:20:25;;;;;;;8.43;5.50;;;;;;;;;;5002835;28;25111;-73
2023/04/10 13:22:51;;;;;;;8.52;4.80;;;;;;;;;;4999014;28;25044;-76
2023/04/10 13:25:17;;;;;;;7.50;5.50;;;;;;;;;;4995539;28;25142;-74
2023/04/10 13:27:43;;;;;;;9.18;5.25;;;;;;;;;;4996570;28;25166;-73
2023/04/10 13:30:09;;;;;;;8.68;5.35;;;;;;;;;;4996513;28;25058;-75
2023/04/10 13:32:35;;;;;;;8.98;6.13;;;;;;;;;;4993262;28;25060;-75
2023/04/10 13:35:01;;;;;;;8.40;5.30;;;;;;;;;;5000241;28;25069;-77
2023/04/10 13:37:27;;;;;;;8.35;5.60;;;;;;;;;;4995997;28;25079;-77
2023/04/10 13:39:53;;;;;;;10.45;5.22;;;;;;;;;;5002648;28;25093;-74
2023/04/10 13:42:19;;;;;;;8.18;5.95;;;;;;;;;;4999484;28;25066;-75
2023/04/10 13:44:45;;;;;;;10.95;6.28;;;;;;;;;;5003369;28;25077;-74
2023/04/10 13:47:11;;;;;;;8.30;5.22;;;;;;;;;;4995884;28;25055;-73
2023/04/10 13:49:37;;;;;;;7.22;5.20;;;;;;;;;;4999791;28;25100;-74
2023/04/10 13:52:04;;;;;;;14.05;6.25;;;;;;;;;;4999831;28;25064;-74
2023/04/10 13:54:30;;;;;;;11.07;6.80;;;;;;;;;;5006005;28;25095;-76
2023/04/10 13:56:56;;;;;;;13.13;7.53;;;;;;;;;;4999207;28;25103;-73
2023/04/10 13:59:22;;;;;;;14.48;8.32;;;;;;;;;;5002150;28;25067;-74
2023/04/10 14:01:51;;;;;;;19.38;7.57;;;;;;;;;;5003989;28;25139;-72
2023/04/10 14:04:17;;;;;;;14.57;6.47;;;;;;;;;;5001261;28;25112;-75
2023/04/10 14:06:43;;;;;;;8.57;5.32;;;;;;;;;;5004820;28;25098;-75
2023/04/10 14:09:09;;;;;;;7.05;5.20;;;;;;;;;;5001135;28;25068;-79
2023/04/10 14:11:35;;;;;;;7.97;4.93;;;;;;;;;;5000305;28;25130;-77
2023/04/10 14:14:01;;;;;;;7.40;4.50;;;;;;;;;;5001881;28;25110;-74
2023/04/10 14:16:27;;;;;;;7.47;4.63;;;;;;;;;;5004019;28;25081;-74
2023/04/10 14:18:53;;;;;;;7.75;5.03;;;;;;;;;;4994924;28;25076;-75
2023/04/10 14:21:19;;;;;;;13.27;5.88;;;;;;;;;;4989327;28;25066;-75
2023/04/10 14:23:45;;;;;;;10.90;6.15;;;;;;;;;;4993963;28;25062;-74
2023/04/10 14:26:11;;;;;;;20.13;9.10;;;;;;;;;;4990542;28;25100;-74
2023/04/10 14:28:37;;;;;;;22.05;10.57;;;;;;;;;;5004127;28;25077;-74
2023/04/10 14:31:04;;;;;;;18.83;10.38;;;;;;;;;;5002425;28;25078;-74
2023/04/10 14:33:30;;;;;;;17.55;8.82;;;;;;;;;;4987291;28;25095;-76
2023/04/10 14:35:56;;;;;;;10.85;6.72;;;;;;;;;;5000782;28;25109;-74